Aérodrome :
LOGIN :

S'inscrire | Disclaimer

   EN    FR    IT 

 










Légende :    VFR   VFR Marginal   IFR   IFR Intensif   IFR Très Intensif
Visi : 
Plafond : 
>= 8 km
>= 3000ft
5 à 8 km
1000 à 3000 ft
1500m à 5 km
500 à 1000 ft
800 à 1500m
200 à 500 ft
< 800m
< 200 ft
Symboles :   Orages  Brouillard  Fortes neiges  Fortes précipitations  Vent > 20 kt
SIGMETs :   Divers  Orages  Givrage  Turbulence  Onde Orograph.  Cendres Volcan.







- Altitude de l'aérodrome : 348 ft
- Code IATA : LDV
- Voir les cartes d'approche


LFRJ - Landivisiau

DERNIER METAR :
  • 260400Z AUTO 34004KT 290V020 9999 FEW030/// ///TCU 03/01 Q1016

METARs EXPIRÉS :
  • 260330Z AUTO 04002KT 9999 FEW030/// ///CB 03/02 Q1016
  • 260300Z AUTO 02004KT 9999 FEW037/// ///TCU 04/01 Q1016
  • 260230Z AUTO 04007KT 360V080 9999 -RA SCT034/// BKN046/// BKN064/// ///CB 04/01 Q1016
  • 260200Z AUTO 09004KT 050V150 9999 -SNRA SCT036/// BKN047/// BKN060/// ///TCU 04/00 Q1016
  • 260130Z AUTO 08008KT 9999 -RA FEW011 BKN038 BKN052 05/01 Q1016

Prévision TAF périmée.
Pas de NOTAMs connus pour ce terrain.



MET'MAP, la Météo Aéronautique d'un coup d'oeil ! - Copyright ORBIFLY Décembre 2007 - Disclaimer

ORBIFLY MET'MAP TEAM :

Programmation & Développement : Alexandra Zaïnal
Conception & Développement : Baudouin d'Aumeries
Co-Programmation & Développement : Marc-Olivier Méhu
Soutien technique & logistique : Manuel Goepfert

Contact : metmap@orbifly.com




SOURCES & CREDITS :

   NOAA